createdAt,value
2022-07-26T00:01:10.236Z,99.90
2022-07-26T00:05:08.311Z,99.90
2022-07-26T00:09:05.932Z,99.90
2022-07-26T00:13:03.266Z,99.90
2022-07-26T00:17:00.416Z,99.90
2022-07-26T00:21:40.704Z,99.90
2022-07-26T00:26:24.830Z,99.90
2022-07-26T00:30:40.820Z,99.90
2022-07-26T00:34:37.872Z,99.90
2022-07-26T00:38:35.157Z,99.90
2022-07-26T00:42:32.298Z,99.90
2022-07-26T00:46:29.438Z,99.90
2022-07-26T00:50:26.594Z,99.90
2022-07-26T00:54:23.732Z,99.90
2022-07-26T00:58:20.779Z,99.90
2022-07-26T01:02:19.024Z,99.90
2022-07-26T01:06:22.784Z,99.90
2022-07-26T01:10:23.776Z,99.90
2022-07-26T01:14:23.608Z,99.90
2022-07-26T01:18:20.712Z,99.90
2022-07-26T01:22:17.682Z,99.90
2022-07-26T01:26:14.633Z,99.90
2022-07-26T01:30:13.025Z,99.90
2022-07-26T01:34:10.379Z,99.90
2022-07-26T01:38:07.697Z,99.90
2022-07-26T01:42:05.365Z,99.90
2022-07-26T01:46:03.763Z,99.90
2022-07-26T01:50:00.826Z,99.90
2022-07-26T01:53:57.881Z,99.90
2022-07-26T01:57:57.180Z,99.90
2022-07-26T02:01:54.287Z,99.90
2022-07-26T02:05:51.311Z,99.90
2022-07-26T02:09:49.510Z,99.90
2022-07-26T02:13:51.263Z,99.90
2022-07-26T02:17:49.966Z,99.90
2022-07-26T02:21:46.913Z,99.90
2022-07-26T02:25:43.973Z,99.90
2022-07-26T02:29:41.030Z,99.90
2022-07-26T02:33:38.032Z,99.90
2022-07-26T02:37:36.613Z,99.90
2022-07-26T02:41:41.244Z,99.90
2022-07-26T02:45:39.076Z,99.90
2022-07-26T02:49:36.073Z,99.90
2022-07-26T02:53:34.930Z,99.90
2022-07-26T02:57:35.102Z,99.90
2022-07-26T03:01:43.426Z,99.90
2022-07-26T03:05:40.842Z,99.90
2022-07-26T03:09:37.884Z,99.90
2022-07-26T03:13:34.920Z,99.90
2022-07-26T03:17:32.299Z,99.90
2022-07-26T03:21:29.349Z,99.90
2022-07-26T03:25:26.470Z,99.90
2022-07-26T03:29:23.442Z,99.90
2022-07-26T03:33:20.398Z,99.90
2022-07-26T03:37:18.547Z,99.90
2022-07-26T03:41:15.531Z,99.90
2022-07-26T03:45:13.182Z,99.90
2022-07-26T03:49:14.649Z,99.90
2022-07-26T03:53:13.800Z,99.90
2022-07-26T03:57:10.807Z,99.90
2022-07-26T04:01:07.842Z,99.90
2022-07-26T04:05:05.421Z,99.90
2022-07-26T04:09:03.547Z,99.90
2022-07-26T04:13:02.316Z,99.90
2022-07-26T04:16:59.428Z,99.90
2022-07-26T04:20:56.608Z,99.90
2022-07-26T04:24:53.660Z,99.90
2022-07-26T04:28:50.946Z,99.90
2022-07-26T04:32:47.956Z,99.90
2022-07-26T04:36:44.935Z,99.90
2022-07-26T04:40:42.041Z,99.90
2022-07-26T04:44:40.289Z,99.90
2022-07-26T04:48:38.341Z,99.90
2022-07-26T04:52:35.484Z,99.90
2022-07-26T04:56:32.481Z,99.90
2022-07-26T05:00:29.564Z,99.90
2022-07-26T05:04:26.696Z,99.90
2022-07-26T05:08:23.687Z,99.90
2022-07-26T05:12:20.668Z,99.90
2022-07-26T05:16:17.962Z,99.90
2022-07-26T05:20:17.234Z,99.90
2022-07-26T05:24:14.374Z,99.90
2022-07-26T05:28:11.806Z,99.90
2022-07-26T05:32:09.170Z,99.90
2022-07-26T05:36:06.648Z,99.90
2022-07-26T05:40:07.904Z,99.90
2022-07-26T05:44:05.421Z,99.90
2022-07-26T05:48:02.783Z,99.90
2022-07-26T05:52:01.416Z,99.90
2022-07-26T05:55:58.580Z,99.90
2022-07-26T05:59:55.596Z,99.90
2022-07-26T06:03:52.663Z,99.90
2022-07-26T06:07:49.712Z,99.90
2022-07-26T06:11:46.931Z,99.90
2022-07-26T06:15:45.861Z,99.90
2022-07-26T06:19:47.583Z,99.90
2022-07-26T06:23:44.962Z,99.90
2022-07-26T06:27:41.920Z,98.90
2022-07-26T06:31:38.985Z,99.30
2022-07-26T06:35:39.263Z,99.20
2022-07-26T06:39:36.240Z,97.60
2022-07-26T06:43:33.176Z,97.10
2022-07-26T06:47:30.236Z,97.30
2022-07-26T06:51:27.696Z,97.70
2022-07-26T06:55:24.706Z,97.40
2022-07-26T06:59:21.656Z,97.20
2022-07-26T07:03:18.726Z,96.80
2022-07-26T07:07:15.715Z,96.70
2022-07-26T07:11:12.702Z,96.50
2022-07-26T07:15:12.288Z,96.10
2022-07-26T07:19:09.331Z,96.50
2022-07-26T07:23:07.175Z,96.90
2022-07-26T07:27:04.983Z,97.60
2022-07-26T07:31:03.742Z,97.60
2022-07-26T07:35:00.927Z,97.60
2022-07-26T07:38:59.203Z,97.40
2022-07-26T07:42:59.461Z,98.20
2022-07-26T07:46:56.547Z,98.20
2022-07-26T07:50:53.937Z,98.40
2022-07-26T07:54:50.986Z,99.10
2022-07-26T07:58:48.116Z,98.70
2022-07-26T08:02:48.535Z,98.70
2022-07-26T08:06:50.454Z,97.30
2022-07-26T08:10:51.966Z,95.30
2022-07-26T08:14:49.751Z,94.60
2022-07-26T08:18:57.047Z,91.80
2022-07-26T08:23:03.720Z,90.10
2022-07-26T08:27:00.883Z,86.70
2022-07-26T08:30:57.982Z,87.00
2022-07-26T08:34:55.042Z,80.50
2022-07-26T08:39:12.057Z,77.00
2022-07-26T08:43:11.194Z,75.70
2022-07-26T08:47:12.414Z,74.70
2022-07-26T08:51:11.068Z,73.10
2022-07-26T08:55:09.193Z,75.20
2022-07-26T08:59:20.262Z,73.70
2022-07-26T09:03:26.759Z,74.20
2022-07-26T09:07:23.849Z,71.30
2022-07-26T09:11:32.608Z,73.50
2022-07-26T09:15:29.770Z,75.70
2022-07-26T09:19:27.620Z,79.40
2022-07-26T09:23:24.605Z,82.40
2022-07-26T09:27:26.456Z,84.50
2022-07-26T09:31:25.265Z,85.40
2022-07-26T09:35:51.399Z,87.70
2022-07-26T09:40:02.057Z,88.80
2022-07-26T09:44:04.172Z,81.70
2022-07-26T09:48:03.061Z,76.20
2022-07-26T09:52:00.096Z,69.20
2022-07-26T09:55:57.541Z,70.60
2022-07-26T09:59:55.360Z,73.40
2022-07-26T10:03:52.347Z,78.00
2022-07-26T10:07:51.979Z,78.80
2022-07-26T10:12:03.332Z,82.00
2022-07-26T10:16:00.502Z,83.50
2022-07-26T10:20:04.238Z,82.50
2022-07-26T10:24:26.682Z,80.00
2022-07-26T10:28:27.452Z,74.50
2022-07-26T10:32:24.628Z,70.00
2022-07-26T10:36:33.518Z,67.30
2022-07-26T10:40:31.672Z,64.10
2022-07-26T10:44:45.329Z,66.50
2022-07-26T10:49:08.729Z,71.20
2022-07-26T10:53:07.534Z,70.00
2022-07-26T10:57:04.771Z,70.10
2022-07-26T11:01:05.130Z,68.80
2022-07-26T11:05:13.425Z,66.40
2022-07-26T11:09:12.679Z,63.00
2022-07-26T11:13:23.878Z,61.30
2022-07-26T11:17:29.920Z,60.30
2022-07-26T11:21:27.493Z,59.20
2022-07-26T11:25:24.514Z,60.50
2022-07-26T11:29:39.055Z,63.80
2022-07-26T11:33:45.840Z,67.10
2022-07-26T11:38:07.857Z,69.90
2022-07-26T11:42:15.171Z,69.90
2022-07-26T11:46:12.534Z,65.80
2022-07-26T11:50:14.363Z,60.20
2022-07-26T11:54:15.594Z,59.60
2022-07-26T11:58:12.706Z,62.30
2022-07-26T12:02:11.378Z,64.10
2022-07-26T12:06:16.270Z,65.70
2022-07-26T12:10:16.811Z,62.60
2022-07-26T12:14:18.341Z,62.20
2022-07-26T12:18:30.952Z,64.60
2022-07-26T12:22:27.934Z,61.60
2022-07-26T12:26:28.701Z,58.90
2022-07-26T12:30:25.861Z,61.90
2022-07-26T12:34:28.005Z,65.30
2022-07-26T12:38:40.765Z,66.40
2022-07-26T12:42:44.417Z,61.90
2022-07-26T12:46:41.530Z,59.20
2022-07-26T12:50:39.013Z,56.70
2022-07-26T12:54:36.051Z,55.40
2022-07-26T12:58:33.106Z,53.80
2022-07-26T13:02:30.140Z,52.40
2022-07-26T13:06:27.331Z,51.90
2022-07-26T13:10:34.060Z,49.30
2022-07-26T13:14:36.936Z,48.80
2022-07-26T13:18:33.904Z,48.90
2022-07-26T13:22:30.894Z,48.30
2022-07-26T13:26:28.202Z,49.80
2022-07-26T13:30:25.274Z,51.90
2022-07-26T13:34:23.731Z,52.30
2022-07-26T13:38:20.794Z,51.50
2022-07-26T13:42:19.410Z,50.60
2022-07-26T13:46:16.734Z,51.10
2022-07-26T13:50:13.741Z,50.30
2022-07-26T13:54:13.682Z,48.00
2022-07-26T13:58:11.088Z,48.20
2022-07-26T14:02:08.379Z,50.20
2022-07-26T14:06:05.453Z,50.30
2022-07-26T14:10:02.478Z,50.60
2022-07-26T14:14:01.926Z,51.60
2022-07-26T14:17:59.020Z,53.30
2022-07-26T14:22:00.018Z,54.20
2022-07-26T14:25:57.505Z,54.80
2022-07-26T14:29:54.472Z,52.00
2022-07-26T14:33:51.590Z,51.00
2022-07-26T14:37:48.612Z,49.30
2022-07-26T14:41:45.754Z,50.50
2022-07-26T14:45:42.914Z,51.20
2022-07-26T14:49:40.086Z,52.50
2022-07-26T14:53:37.218Z,54.90
2022-07-26T14:57:34.976Z,56.00
2022-07-26T15:01:36.767Z,53.80
2022-07-26T15:05:33.802Z,50.80
2022-07-26T15:09:30.761Z,49.40
2022-07-26T15:13:27.888Z,48.30
2022-07-26T15:17:25.016Z,48.60
2022-07-26T15:21:22.093Z,46.90
2022-07-26T15:25:19.078Z,46.00
2022-07-26T15:29:16.131Z,46.00
2022-07-26T15:33:14.530Z,45.80
2022-07-26T15:37:11.781Z,46.10
2022-07-26T15:41:08.815Z,45.70
2022-07-26T15:45:09.339Z,48.80
2022-07-26T15:49:07.614Z,49.80
2022-07-26T15:53:04.842Z,49.60
2022-07-26T15:57:01.866Z,47.00
2022-07-26T16:00:58.885Z,46.00
2022-07-26T16:04:55.937Z,47.00
2022-07-26T16:09:15.201Z,47.60
2022-07-26T16:13:09.906Z,47.80
2022-07-26T16:17:06.919Z,45.80
2022-07-26T16:21:04.236Z,46.10
2022-07-26T16:25:01.326Z,44.60
2022-07-26T16:28:59.409Z,44.70
2022-07-26T16:32:56.343Z,45.60
2022-07-26T16:36:54.281Z,47.10
2022-07-26T16:40:51.561Z,45.80
2022-07-26T16:44:49.050Z,44.90
2022-07-26T16:48:46.164Z,44.80
2022-07-26T16:52:43.280Z,44.60
2022-07-26T16:56:40.328Z,45.30
2022-07-26T17:00:37.512Z,46.90
2022-07-26T17:04:35.761Z,48.10
2022-07-26T17:08:32.818Z,47.00
2022-07-26T17:12:29.834Z,45.20
2022-07-26T17:16:27.060Z,44.70
2022-07-26T17:20:24.410Z,44.30
2022-07-26T17:24:21.544Z,44.50
2022-07-26T17:28:18.622Z,45.00
2022-07-26T17:32:15.639Z,46.70
2022-07-26T17:36:19.826Z,48.10
2022-07-26T17:40:17.074Z,50.00
2022-07-26T17:44:14.143Z,52.80
2022-07-26T17:48:11.206Z,55.40
2022-07-26T17:52:08.966Z,56.60
2022-07-26T17:56:06.124Z,57.10
2022-07-26T18:00:06.945Z,57.00
2022-07-26T18:04:04.248Z,57.20
2022-07-26T18:08:01.892Z,57.00
2022-07-26T18:11:58.965Z,56.90
2022-07-26T18:15:56.672Z,57.60
2022-07-26T18:19:53.851Z,58.50
2022-07-26T18:24:15.214Z,59.40
2022-07-26T18:28:09.616Z,60.60
2022-07-26T18:32:06.901Z,62.20
2022-07-26T18:36:04.312Z,64.00
2022-07-26T18:40:01.977Z,64.70
2022-07-26T18:43:59.168Z,66.10
2022-07-26T18:47:56.216Z,67.00
2022-07-26T18:51:53.543Z,68.10
2022-07-26T18:55:51.256Z,69.10
2022-07-26T18:59:48.282Z,70.50
2022-07-26T19:03:45.537Z,71.40
2022-07-26T19:07:43.396Z,72.50
2022-07-26T19:11:40.370Z,72.70
2022-07-26T19:15:37.382Z,73.50
2022-07-26T19:19:34.311Z,74.20
2022-07-26T19:23:31.365Z,75.40
2022-07-26T19:27:28.591Z,77.00
2022-07-26T19:31:25.636Z,76.20
2022-07-26T19:35:22.732Z,77.50
2022-07-26T19:39:20.902Z,77.30
2022-07-26T19:43:17.909Z,77.60
2022-07-26T19:47:16.040Z,78.00
2022-07-26T19:51:13.171Z,79.10
2022-07-26T19:55:10.432Z,80.00
2022-07-26T19:59:07.714Z,80.50
2022-07-26T20:03:04.939Z,81.00
2022-07-26T20:07:02.600Z,81.60
2022-07-26T20:10:59.594Z,82.10
2022-07-26T20:14:56.767Z,82.70
2022-07-26T20:18:54.030Z,83.60
2022-07-26T20:22:51.054Z,84.70
2022-07-26T20:26:48.148Z,86.40
2022-07-26T20:30:48.347Z,86.90
2022-07-26T20:34:45.753Z,87.70
2022-07-26T20:38:42.744Z,88.70
2022-07-26T20:42:41.911Z,89.60
2022-07-26T20:46:41.867Z,90.40
2022-07-26T20:50:38.862Z,90.60
2022-07-26T20:54:35.918Z,90.80
2022-07-26T20:58:33.190Z,91.20
2022-07-26T21:02:30.204Z,91.50
2022-07-26T21:06:29.228Z,91.60
2022-07-26T21:10:30.031Z,91.60
2022-07-26T21:14:27.024Z,92.00
2022-07-26T21:18:25.914Z,92.10
2022-07-26T21:22:22.892Z,92.80
2022-07-26T21:26:20.084Z,92.60
2022-07-26T21:30:17.058Z,93.00
2022-07-26T21:34:14.458Z,93.40
2022-07-26T21:38:12.027Z,93.30
2022-07-26T21:42:09.031Z,93.70
2022-07-26T21:46:11.888Z,94.30
2022-07-26T21:50:10.094Z,94.90
2022-07-26T21:54:07.262Z,94.70
2022-07-26T21:58:04.295Z,95.00
2022-07-26T22:02:01.513Z,95.50
2022-07-26T22:05:59.146Z,95.40
2022-07-26T22:09:56.121Z,95.90
2022-07-26T22:13:53.202Z,95.90
2022-07-26T22:17:50.318Z,96.40
2022-07-26T22:21:47.272Z,96.70
2022-07-26T22:25:44.747Z,97.20
2022-07-26T22:29:41.722Z,97.60
2022-07-26T22:33:38.773Z,97.70
2022-07-26T22:37:35.983Z,97.80
2022-07-26T22:41:38.466Z,98.10
2022-07-26T22:45:48.706Z,98.40
2022-07-26T22:49:45.791Z,98.80
2022-07-26T22:53:42.763Z,99.10
2022-07-26T22:57:44.704Z,99.30
2022-07-26T23:01:41.761Z,99.70
2022-07-26T23:05:46.382Z,99.70
2022-07-26T23:09:44.743Z,99.90
2022-07-26T23:13:41.755Z,99.90
2022-07-26T23:17:39.351Z,99.90
2022-07-26T23:21:36.403Z,99.90
2022-07-26T23:25:34.244Z,99.90
2022-07-26T23:29:31.810Z,99.90
2022-07-26T23:33:53.534Z,99.90
2022-07-26T23:37:45.712Z,99.90
2022-07-26T23:41:42.759Z,99.90
2022-07-26T23:45:39.721Z,99.90
2022-07-26T23:49:36.717Z,99.90
2022-07-26T23:53:33.750Z,99.90
2022-07-26T23:57:30.698Z,99.90
